Ironside, Oregon
Current Conditions -  °F | °C
As of 2:53 PM on Sunday 23 Nov 2014 (Local Time) from KBKE Reporting Station
Scattered Clouds Scattered Clouds  
Wind Chill: 38°   Ceiling: Unl
Heat Index: 41°   Visibility: 10mi
Dew Point: 30°   Wind: 5mph
Humidity: 65%   Direction: 60°ENE
Pressure: 30.18"   Gusts: NA
Location:  44.32°N, 117.95°W
Report Text: KBKE 232153Z AUTO 06004KT 10SM SCT100 05/M01 A3018 RMK AO2 SLP242 T00501011 $
Loading
Personal Weather Stations






























Interactive Weather Map New forecast layout! Learn more

10-Day Weather Forecast

Advertisements
Track Severe Weather on mobile